sensor_id;sensor_type;location;lat;lon;timestamp;P1;durP1;ratioP1;P2;durP2;ratioP2
77409;SDS011;66481;51.332;22.804;2023-08-17T00:03:08;23.67;;;19.40;;
77409;SDS011;66481;51.332;22.804;2023-08-17T00:07:10;24.95;;;19.95;;
77409;SDS011;66481;51.332;22.804;2023-08-17T00:11:12;27.05;;;20.58;;
77409;SDS011;66481;51.332;22.804;2023-08-17T00:15:13;26.08;;;20.80;;
77409;SDS011;66481;51.332;22.804;2023-08-17T00:19:14;27.00;;;20.45;;
77409;SDS011;66481;51.332;22.804;2023-08-17T00:23:16;21.80;;;19.45;;
77409;SDS011;66481;51.332;22.804;2023-08-17T00:27:17;25.30;;;21.02;;
77409;SDS011;66481;51.332;22.804;2023-08-17T00:31:18;21.80;;;19.23;;
77409;SDS011;66481;51.332;22.804;2023-08-17T00:35:19;27.23;;;18.58;;
77409;SDS011;66481;51.332;22.804;2023-08-17T00:39:21;23.65;;;18.85;;
77409;SDS011;66481;51.332;22.804;2023-08-17T00:43:22;29.25;;;20.38;;
77409;SDS011;66481;51.332;22.804;2023-08-17T00:47:23;21.92;;;19.20;;
77409;SDS011;66481;51.332;22.804;2023-08-17T00:51:25;22.35;;;18.67;;
77409;SDS011;66481;51.332;22.804;2023-08-17T00:55:27;21.52;;;19.23;;
77409;SDS011;66481;51.332;22.804;2023-08-17T00:59:28;23.63;;;20.35;;
77409;SDS011;66481;51.332;22.804;2023-08-17T01:03:30;21.95;;;19.52;;
77409;SDS011;66481;51.332;22.804;2023-08-17T01:07:32;25.98;;;20.13;;
77409;SDS011;66481;51.332;22.804;2023-08-17T01:11:37;23.38;;;20.35;;
77409;SDS011;66481;51.332;22.804;2023-08-17T01:15:58;25.13;;;20.45;;
77409;SDS011;66481;51.332;22.804;2023-08-17T01:20:06;28.27;;;21.85;;
77409;SDS011;66481;51.332;22.804;2023-08-17T01:24:10;27.80;;;21.90;;
77409;SDS011;66481;51.332;22.804;2023-08-17T01:28:12;26.35;;;22.40;;
77409;SDS011;66481;51.332;22.804;2023-08-17T01:32:16;23.52;;;21.02;;
77409;SDS011;66481;51.332;22.804;2023-08-17T01:36:25;27.40;;;21.70;;
77409;SDS011;66481;51.332;22.804;2023-08-17T01:40:33;24.35;;;21.75;;
77409;SDS011;66481;51.332;22.804;2023-08-17T01:44:35;23.08;;;20.70;;
77409;SDS011;66481;51.332;22.804;2023-08-17T01:48:35;26.63;;;21.15;;
77409;SDS011;66481;51.332;22.804;2023-08-17T01:52:36;24.50;;;20.92;;
77409;SDS011;66481;51.332;22.804;2023-08-17T01:56:37;25.98;;;21.98;;
77409;SDS011;66481;51.332;22.804;2023-08-17T02:00:38;26.50;;;22.48;;
77409;SDS011;66481;51.332;22.804;2023-08-17T02:04:39;28.27;;;22.00;;
77409;SDS011;66481;51.332;22.804;2023-08-17T02:08:40;24.77;;;21.30;;
77409;SDS011;66481;51.332;22.804;2023-08-17T02:12:41;26.02;;;21.05;;
77409;SDS011;66481;51.332;22.804;2023-08-17T02:16:42;24.98;;;18.45;;
77409;SDS011;66481;51.332;22.804;2023-08-17T02:20:43;25.05;;;20.25;;
77409;SDS011;66481;51.332;22.804;2023-08-17T02:24:44;25.15;;;20.00;;
77409;SDS011;66481;51.332;22.804;2023-08-17T02:28:47;26.98;;;19.95;;
77409;SDS011;66481;51.332;22.804;2023-08-17T02:32:47;24.08;;;20.15;;
77409;SDS011;66481;51.332;22.804;2023-08-17T02:36:49;24.27;;;20.75;;
77409;SDS011;66481;51.332;22.804;2023-08-17T02:40:49;25.15;;;22.05;;
77409;SDS011;66481;51.332;22.804;2023-08-17T02:44:50;25.92;;;22.30;;
77409;SDS011;66481;51.332;22.804;2023-08-17T02:48:51;29.58;;;22.92;;
77409;SDS011;66481;51.332;22.804;2023-08-17T02:52:53;26.40;;;23.17;;
77409;SDS011;66481;51.332;22.804;2023-08-17T02:56:54;26.23;;;22.60;;
77409;SDS011;66481;51.332;22.804;2023-08-17T03:00:55;25.58;;;21.40;;
77409;SDS011;66481;51.332;22.804;2023-08-17T03:04:56;25.73;;;22.92;;
77409;SDS011;66481;51.332;22.804;2023-08-17T03:08:57;23.60;;;21.08;;
77409;SDS011;66481;51.332;22.804;2023-08-17T03:12:58;27.63;;;22.02;;
77409;SDS011;66481;51.332;22.804;2023-08-17T03:16:59;25.73;;;21.45;;
77409;SDS011;66481;51.332;22.804;2023-08-17T03:21:00;26.70;;;22.92;;
77409;SDS011;66481;51.332;22.804;2023-08-17T03:25:01;28.73;;;23.38;;
77409;SDS011;66481;51.332;22.804;2023-08-17T03:29:03;26.02;;;21.92;;
77409;SDS011;66481;51.332;22.804;2023-08-17T03:33:05;27.00;;;20.88;;
77409;SDS011;66481;51.332;22.804;2023-08-17T03:37:06;26.63;;;22.13;;
77409;SDS011;66481;51.332;22.804;2023-08-17T03:41:07;26.80;;;19.35;;
77409;SDS011;66481;51.332;22.804;2023-08-17T03:45:08;22.33;;;19.83;;
77409;SDS011;66481;51.332;22.804;2023-08-17T03:49:09;22.35;;;19.95;;
77409;SDS011;66481;51.332;22.804;2023-08-17T03:53:10;26.45;;;21.25;;
77409;SDS011;66481;51.332;22.804;2023-08-17T03:57:12;24.48;;;21.85;;
77409;SDS011;66481;51.332;22.804;2023-08-17T04:01:13;25.52;;;22.95;;
77409;SDS011;66481;51.332;22.804;2023-08-17T04:05:14;23.65;;;21.00;;
77409;SDS011;66481;51.332;22.804;2023-08-17T04:09:15;24.50;;;20.52;;
77409;SDS011;66481;51.332;22.804;2023-08-17T04:13:16;22.88;;;19.33;;
77409;SDS011;66481;51.332;22.804;2023-08-17T04:17:17;26.27;;;21.67;;
77409;SDS011;66481;51.332;22.804;2023-08-17T04:21:18;22.08;;;19.92;;
77409;SDS011;66481;51.332;22.804;2023-08-17T04:25:19;22.70;;;20.25;;
77409;SDS011;66481;51.332;22.804;2023-08-17T04:29:20;22.38;;;20.00;;
77409;SDS011;66481;51.332;22.804;2023-08-17T04:33:21;22.67;;;18.98;;
77409;SDS011;66481;51.332;22.804;2023-08-17T04:37:22;24.83;;;20.08;;
77409;SDS011;66481;51.332;22.804;2023-08-17T04:41:23;25.60;;;20.83;;
77409;SDS011;66481;51.332;22.804;2023-08-17T04:45:24;22.80;;;18.45;;
77409;SDS011;66481;51.332;22.804;2023-08-17T04:49:25;21.40;;;19.13;;
77409;SDS011;66481;51.332;22.804;2023-08-17T04:53:26;22.80;;;19.27;;
77409;SDS011;66481;51.332;22.804;2023-08-17T04:57:27;20.98;;;18.77;;
77409;SDS011;66481;51.332;22.804;2023-08-17T05:01:28;22.20;;;19.23;;
77409;SDS011;66481;51.332;22.804;2023-08-17T05:05:29;21.10;;;18.90;;
77409;SDS011;66481;51.332;22.804;2023-08-17T05:09:30;21.52;;;18.58;;
77409;SDS011;66481;51.332;22.804;2023-08-17T05:13:31;20.85;;;18.75;;
77409;SDS011;66481;51.332;22.804;2023-08-17T05:17:32;21.65;;;19.30;;
77409;SDS011;66481;51.332;22.804;2023-08-17T05:21:34;22.35;;;18.48;;
77409;SDS011;66481;51.332;22.804;2023-08-17T05:25:36;20.67;;;18.38;;
77409;SDS011;66481;51.332;22.804;2023-08-17T05:29:37;21.40;;;19.20;;
77409;SDS011;66481;51.332;22.804;2023-08-17T05:33:39;19.98;;;17.15;;
77409;SDS011;66481;51.332;22.804;2023-08-17T05:37:43;19.00;;;16.92;;
77409;SDS011;66481;51.332;22.804;2023-08-17T05:41:44;20.80;;;17.90;;
77409;SDS011;66481;51.332;22.804;2023-08-17T05:45:45;24.73;;;18.48;;
77409;SDS011;66481;51.332;22.804;2023-08-17T05:49:46;19.85;;;17.63;;
77409;SDS011;66481;51.332;22.804;2023-08-17T05:53:47;19.95;;;17.95;;
77409;SDS011;66481;51.332;22.804;2023-08-17T05:57:47;20.15;;;17.83;;
77409;SDS011;66481;51.332;22.804;2023-08-17T06:01:48;22.15;;;19.15;;
77409;SDS011;66481;51.332;22.804;2023-08-17T06:05:52;20.70;;;18.55;;
77409;SDS011;66481;51.332;22.804;2023-08-17T06:09:53;19.75;;;17.60;;
77409;SDS011;66481;51.332;22.804;2023-08-17T06:13:54;22.98;;;20.33;;
77409;SDS011;66481;51.332;22.804;2023-08-17T06:17:55;22.55;;;19.05;;
77409;SDS011;66481;51.332;22.804;2023-08-17T06:21:57;22.70;;;19.52;;
77409;SDS011;66481;51.332;22.804;2023-08-17T06:25:59;22.55;;;19.80;;
77409;SDS011;66481;51.332;22.804;2023-08-17T06:30:00;22.25;;;17.98;;
77409;SDS011;66481;51.332;22.804;2023-08-17T06:34:03;16.60;;;14.90;;
77409;SDS011;66481;51.332;22.804;2023-08-17T06:38:05;17.85;;;15.95;;
77409;SDS011;66481;51.332;22.804;2023-08-17T06:42:07;17.48;;;15.15;;
77409;SDS011;66481;51.332;22.804;2023-08-17T06:46:07;16.98;;;15.18;;
77409;SDS011;66481;51.332;22.804;2023-08-17T06:50:09;16.92;;;15.23;;
77409;SDS011;66481;51.332;22.804;2023-08-17T06:54:10;18.33;;;15.13;;
77409;SDS011;66481;51.332;22.804;2023-08-17T06:58:12;18.48;;;13.98;;
77409;SDS011;66481;51.332;22.804;2023-08-17T07:02:13;14.65;;;13.15;;
77409;SDS011;66481;51.332;22.804;2023-08-17T07:06:14;14.10;;;12.55;;
77409;SDS011;66481;51.332;22.804;2023-08-17T07:10:15;14.73;;;12.50;;
77409;SDS011;66481;51.332;22.804;2023-08-17T07:14:16;12.60;;;11.13;;
77409;SDS011;66481;51.332;22.804;2023-08-17T07:18:17;11.98;;;10.68;;
77409;SDS011;66481;51.332;22.804;2023-08-17T07:22:18;14.20;;;11.50;;
77409;SDS011;66481;51.332;22.804;2023-08-17T07:26:22;12.70;;;11.40;;
77409;SDS011;66481;51.332;22.804;2023-08-17T07:34:25;11.93;;;10.75;;
77409;SDS011;66481;51.332;22.804;2023-08-17T07:42:29;13.25;;;9.93;;
77409;SDS011;66481;51.332;22.804;2023-08-17T07:46:31;10.90;;;8.55;;
77409;SDS011;66481;51.332;22.804;2023-08-17T07:50:33;11.38;;;10.25;;
77409;SDS011;66481;51.332;22.804;2023-08-17T07:54:38;14.88;;;10.98;;
77409;SDS011;66481;51.332;22.804;2023-08-17T07:58:40;13.85;;;11.20;;
77409;SDS011;66481;51.332;22.804;2023-08-17T08:02:42;16.58;;;11.88;;
77409;SDS011;66481;51.332;22.804;2023-08-17T08:06:43;11.20;;;9.43;;
77409;SDS011;66481;51.332;22.804;2023-08-17T08:10:44;12.15;;;8.73;;
77409;SDS011;66481;51.332;22.804;2023-08-17T08:14:46;11.02;;;8.95;;
77409;SDS011;66481;51.332;22.804;2023-08-17T08:18:47;10.93;;;9.85;;
77409;SDS011;66481;51.332;22.804;2023-08-17T08:22:48;10.40;;;8.85;;
77409;SDS011;66481;51.332;22.804;2023-08-17T08:26:50;10.75;;;9.75;;
77409;SDS011;66481;51.332;22.804;2023-08-17T08:30:59;11.05;;;9.68;;
77409;SDS011;66481;51.332;22.804;2023-08-17T08:35:03;12.07;;;10.18;;
77409;SDS011;66481;51.332;22.804;2023-08-17T08:39:05;13.60;;;9.57;;
77409;SDS011;66481;51.332;22.804;2023-08-17T08:43:07;14.98;;;11.65;;
77409;SDS011;66481;51.332;22.804;2023-08-17T08:47:13;11.20;;;10.10;;
77409;SDS011;66481;51.332;22.804;2023-08-17T08:51:16;12.30;;;9.63;;
77409;SDS011;66481;51.332;22.804;2023-08-17T08:55:26;13.98;;;10.35;;
77409;SDS011;66481;51.332;22.804;2023-08-17T08:59:29;11.25;;;10.23;;
77409;SDS011;66481;51.332;22.804;2023-08-17T09:03:31;16.08;;;11.80;;
77409;SDS011;66481;51.332;22.804;2023-08-17T09:07:33;16.70;;;11.23;;
77409;SDS011;66481;51.332;22.804;2023-08-17T09:11:36;7.40;;;6.70;;
77409;SDS011;66481;51.332;22.804;2023-08-17T09:15:37;18.17;;;11.48;;
77409;SDS011;66481;51.332;22.804;2023-08-17T09:19:38;16.80;;;11.23;;
77409;SDS011;66481;51.332;22.804;2023-08-17T09:23:39;9.80;;;8.85;;
77409;SDS011;66481;51.332;22.804;2023-08-17T09:27:40;9.80;;;8.30;;
77409;SDS011;66481;51.332;22.804;2023-08-17T09:31:41;9.48;;;8.43;;
77409;SDS011;66481;51.332;22.804;2023-08-17T09:35:45;9.32;;;8.07;;
77409;SDS011;66481;51.332;22.804;2023-08-17T09:39:46;9.05;;;7.35;;
77409;SDS011;66481;51.332;22.804;2023-08-17T09:43:47;9.50;;;6.68;;
77409;SDS011;66481;51.332;22.804;2023-08-17T09:47:48;11.93;;;6.75;;
77409;SDS011;66481;51.332;22.804;2023-08-17T09:51:49;6.70;;;6.00;;
77409;SDS011;66481;51.332;22.804;2023-08-17T09:55:53;6.00;;;5.40;;
77409;SDS011;66481;51.332;22.804;2023-08-17T09:59:56;7.32;;;3.92;;
77409;SDS011;66481;51.332;22.804;2023-08-17T10:03:57;7.38;;;4.97;;
77409;SDS011;66481;51.332;22.804;2023-08-17T10:08:00;5.75;;;4.85;;
77409;SDS011;66481;51.332;22.804;2023-08-17T10:12:06;6.13;;;4.45;;
77409;SDS011;66481;51.332;22.804;2023-08-17T10:16:29;5.57;;;4.22;;
77409;SDS011;66481;51.332;22.804;2023-08-17T10:20:37;6.05;;;4.47;;
77409;SDS011;66481;51.332;22.804;2023-08-17T10:24:42;6.47;;;4.50;;
77409;SDS011;66481;51.332;22.804;2023-08-17T10:28:45;5.85;;;4.40;;
77409;SDS011;66481;51.332;22.804;2023-08-17T10:32:47;4.70;;;4.30;;
77409;SDS011;66481;51.332;22.804;2023-08-17T10:36:50;4.50;;;4.10;;
77409;SDS011;66481;51.332;22.804;2023-08-17T10:45:28;6.57;;;5.30;;
77409;SDS011;66481;51.332;22.804;2023-08-17T10:49:30;6.40;;;5.80;;
77409;SDS011;66481;51.332;22.804;2023-08-17T10:53:35;5.70;;;5.20;;
77409;SDS011;66481;51.332;22.804;2023-08-17T10:57:39;8.05;;;5.47;;
77409;SDS011;66481;51.332;22.804;2023-08-17T11:01:44;6.70;;;5.57;;
77409;SDS011;66481;51.332;22.804;2023-08-17T11:05:49;7.13;;;5.50;;
77409;SDS011;66481;51.332;22.804;2023-08-17T11:09:56;7.18;;;6.10;;
77409;SDS011;66481;51.332;22.804;2023-08-17T11:13:58;6.70;;;5.63;;
77409;SDS011;66481;51.332;22.804;2023-08-17T11:17:59;6.78;;;6.15;;
77409;SDS011;66481;51.332;22.804;2023-08-17T11:22:01;6.93;;;6.15;;
77409;SDS011;66481;51.332;22.804;2023-08-17T11:26:03;8.18;;;6.78;;
77409;SDS011;66481;51.332;22.804;2023-08-17T11:34:06;7.85;;;6.13;;
77409;SDS011;66481;51.332;22.804;2023-08-17T11:38:08;9.85;;;7.00;;
77409;SDS011;66481;51.332;22.804;2023-08-17T11:42:09;9.57;;;6.72;;
77409;SDS011;66481;51.332;22.804;2023-08-17T11:46:11;7.47;;;6.75;;
77409;SDS011;66481;51.332;22.804;2023-08-17T11:50:13;7.18;;;6.57;;
77409;SDS011;66481;51.332;22.804;2023-08-17T11:54:15;8.50;;;6.47;;
77409;SDS011;66481;51.332;22.804;2023-08-17T11:58:16;7.90;;;6.40;;
77409;SDS011;66481;51.332;22.804;2023-08-17T12:02:16;7.40;;;6.72;;
77409;SDS011;66481;51.332;22.804;2023-08-17T12:06:18;8.70;;;6.65;;
77409;SDS011;66481;51.332;22.804;2023-08-17T12:10:19;8.45;;;7.20;;
77409;SDS011;66481;51.332;22.804;2023-08-17T12:14:20;7.22;;;6.55;;
77409;SDS011;66481;51.332;22.804;2023-08-17T12:18:21;8.65;;;6.70;;
77409;SDS011;66481;51.332;22.804;2023-08-17T12:22:25;7.60;;;6.78;;
77409;SDS011;66481;51.332;22.804;2023-08-17T12:26:26;9.88;;;7.30;;
77409;SDS011;66481;51.332;22.804;2023-08-17T12:30:29;8.73;;;6.82;;
77409;SDS011;66481;51.332;22.804;2023-08-17T12:34:36;8.07;;;7.28;;
77409;SDS011;66481;51.332;22.804;2023-08-17T12:38:37;7.03;;;6.18;;
77409;SDS011;66481;51.332;22.804;2023-08-17T12:42:41;7.95;;;6.03;;
77409;SDS011;66481;51.332;22.804;2023-08-17T12:46:42;7.22;;;6.47;;
77409;SDS011;66481;51.332;22.804;2023-08-17T12:50:43;7.10;;;6.38;;
77409;SDS011;66481;51.332;22.804;2023-08-17T12:54:44;7.45;;;6.65;;
77409;SDS011;66481;51.332;22.804;2023-08-17T12:58:47;7.13;;;6.43;;
77409;SDS011;66481;51.332;22.804;2023-08-17T13:02:48;8.07;;;6.97;;
77409;SDS011;66481;51.332;22.804;2023-08-17T13:06:52;6.20;;;5.65;;
77409;SDS011;66481;51.332;22.804;2023-08-17T13:10:54;6.03;;;5.53;;
77409;SDS011;66481;51.332;22.804;2023-08-17T13:14:55;6.15;;;5.55;;
77409;SDS011;66481;51.332;22.804;2023-08-17T13:18:56;7.50;;;5.65;;
77409;SDS011;66481;51.332;22.804;2023-08-17T13:22:57;9.40;;;6.10;;
77409;SDS011;66481;51.332;22.804;2023-08-17T13:26:58;8.10;;;6.15;;
77409;SDS011;66481;51.332;22.804;2023-08-17T13:30:59;6.25;;;5.75;;
77409;SDS011;66481;51.332;22.804;2023-08-17T13:35:03;10.02;;;5.90;;
77409;SDS011;66481;51.332;22.804;2023-08-17T13:39:04;6.75;;;5.32;;
77409;SDS011;66481;51.332;22.804;2023-08-17T13:47:13;8.10;;;4.63;;
77409;SDS011;66481;51.332;22.804;2023-08-17T13:51:14;6.28;;;5.55;;
77409;SDS011;66481;51.332;22.804;2023-08-17T13:55:15;8.57;;;5.72;;
77409;SDS011;66481;51.332;22.804;2023-08-17T13:59:16;6.55;;;5.45;;
77409;SDS011;66481;51.332;22.804;2023-08-17T14:03:17;5.90;;;5.40;;
77409;SDS011;66481;51.332;22.804;2023-08-17T14:07:19;5.80;;;5.30;;
77409;SDS011;66481;51.332;22.804;2023-08-17T14:11:20;5.45;;;4.82;;
77409;SDS011;66481;51.332;22.804;2023-08-17T14:15:21;5.60;;;5.03;;
77409;SDS011;66481;51.332;22.804;2023-08-17T14:19:23;5.30;;;4.30;;
77409;SDS011;66481;51.332;22.804;2023-08-17T14:23:24;5.78;;;4.50;;
77409;SDS011;66481;51.332;22.804;2023-08-17T14:27:25;8.10;;;4.97;;
77409;SDS011;66481;51.332;22.804;2023-08-17T14:31:26;6.68;;;5.97;;
77409;SDS011;66481;51.332;22.804;2023-08-17T14:35:27;5.97;;;5.30;;
77409;SDS011;66481;51.332;22.804;2023-08-17T14:39:29;7.70;;;5.75;;
77409;SDS011;66481;51.332;22.804;2023-08-17T14:47:31;7.88;;;5.75;;
77409;SDS011;66481;51.332;22.804;2023-08-17T14:51:36;6.85;;;6.15;;
77409;SDS011;66481;51.332;22.804;2023-08-17T14:55:40;7.68;;;6.35;;
77409;SDS011;66481;51.332;22.804;2023-08-17T14:59:41;8.63;;;6.18;;
77409;SDS011;66481;51.332;22.804;2023-08-17T15:03:42;10.38;;;6.20;;
77409;SDS011;66481;51.332;22.804;2023-08-17T15:07:44;8.70;;;6.88;;
77409;SDS011;66481;51.332;22.804;2023-08-17T15:11:45;16.55;;;6.80;;
77409;SDS011;66481;51.332;22.804;2023-08-17T15:15:48;18.88;;;7.57;;
77409;SDS011;66481;51.332;22.804;2023-08-17T15:19:50;15.57;;;7.43;;
77409;SDS011;66481;51.332;22.804;2023-08-17T15:23:53;10.80;;;6.60;;
77409;SDS011;66481;51.332;22.804;2023-08-17T15:27:55;7.60;;;6.90;;
77409;SDS011;66481;51.332;22.804;2023-08-17T15:31:56;8.65;;;5.88;;
77409;SDS011;66481;51.332;22.804;2023-08-17T15:35:57;8.05;;;5.75;;
77409;SDS011;66481;51.332;22.804;2023-08-17T15:39:59;15.23;;;6.97;;
77409;SDS011;66481;51.332;22.804;2023-08-17T15:44:00;15.18;;;7.38;;
77409;SDS011;66481;51.332;22.804;2023-08-17T15:48:02;10.88;;;6.68;;
77409;SDS011;66481;51.332;22.804;2023-08-17T15:52:03;11.35;;;7.97;;
77409;SDS011;66481;51.332;22.804;2023-08-17T15:56:05;7.80;;;7.00;;
77409;SDS011;66481;51.332;22.804;2023-08-17T16:00:06;9.10;;;6.97;;
77409;SDS011;66481;51.332;22.804;2023-08-17T16:04:08;8.15;;;7.45;;
77409;SDS011;66481;51.332;22.804;2023-08-17T16:08:09;8.98;;;7.18;;
77409;SDS011;66481;51.332;22.804;2023-08-17T16:12:11;10.52;;;6.80;;
77409;SDS011;66481;51.332;22.804;2023-08-17T16:16:12;10.45;;;6.80;;
77409;SDS011;66481;51.332;22.804;2023-08-17T16:20:13;8.88;;;7.35;;
77409;SDS011;66481;51.332;22.804;2023-08-17T16:24:15;10.85;;;7.45;;
77409;SDS011;66481;51.332;22.804;2023-08-17T16:28:17;8.48;;;7.68;;
77409;SDS011;66481;51.332;22.804;2023-08-17T16:32:19;10.70;;;8.25;;
77409;SDS011;66481;51.332;22.804;2023-08-17T16:36:30;9.18;;;8.15;;
77409;SDS011;66481;51.332;22.804;2023-08-17T16:40:31;9.38;;;8.10;;
77409;SDS011;66481;51.332;22.804;2023-08-17T16:44:33;11.35;;;8.13;;
77409;SDS011;66481;51.332;22.804;2023-08-17T16:48:35;10.50;;;8.77;;
77409;SDS011;66481;51.332;22.804;2023-08-17T16:52:38;11.95;;;9.75;;
77409;SDS011;66481;51.332;22.804;2023-08-17T16:56:39;13.00;;;10.23;;
77409;SDS011;66481;51.332;22.804;2023-08-17T17:00:44;15.07;;;11.02;;
77409;SDS011;66481;51.332;22.804;2023-08-17T17:04:45;11.90;;;9.85;;
77409;SDS011;66481;51.332;22.804;2023-08-17T17:08:46;11.85;;;9.80;;
77409;SDS011;66481;51.332;22.804;2023-08-17T17:12:47;26.20;;;22.17;;
77409;SDS011;66481;51.332;22.804;2023-08-17T17:16:48;12.63;;;10.02;;
77409;SDS011;66481;51.332;22.804;2023-08-17T17:20:49;22.13;;;16.35;;
77409;SDS011;66481;51.332;22.804;2023-08-17T17:24:51;25.50;;;16.77;;
77409;SDS011;66481;51.332;22.804;2023-08-17T17:28:52;16.13;;;10.82;;
77409;SDS011;66481;51.332;22.804;2023-08-17T17:32:53;24.40;;;15.02;;
77409;SDS011;66481;51.332;22.804;2023-08-17T17:36:54;22.35;;;15.77;;
77409;SDS011;66481;51.332;22.804;2023-08-17T17:40:56;41.38;;;16.52;;
77409;SDS011;66481;51.332;22.804;2023-08-17T17:44:58;24.75;;;14.05;;
77409;SDS011;66481;51.332;22.804;2023-08-17T17:48:59;21.65;;;12.68;;
77409;SDS011;66481;51.332;22.804;2023-08-17T17:53:00;28.08;;;14.13;;
77409;SDS011;66481;51.332;22.804;2023-08-17T17:57:02;21.48;;;14.35;;
77409;SDS011;66481;51.332;22.804;2023-08-17T18:01:04;18.27;;;12.93;;
77409;SDS011;66481;51.332;22.804;2023-08-17T18:05:05;28.38;;;11.68;;
77409;SDS011;66481;51.332;22.804;2023-08-17T18:09:07;15.60;;;11.15;;
77409;SDS011;66481;51.332;22.804;2023-08-17T18:13:08;14.95;;;11.65;;
77409;SDS011;66481;51.332;22.804;2023-08-17T18:17:10;14.27;;;11.88;;
77409;SDS011;66481;51.332;22.804;2023-08-17T18:21:11;15.32;;;11.32;;
77409;SDS011;66481;51.332;22.804;2023-08-17T18:25:13;16.17;;;12.23;;
77409;SDS011;66481;51.332;22.804;2023-08-17T18:29:14;15.05;;;10.63;;
77409;SDS011;66481;51.332;22.804;2023-08-17T18:33:16;17.52;;;12.38;;
77409;SDS011;66481;51.332;22.804;2023-08-17T18:37:18;13.85;;;11.07;;
77409;SDS011;66481;51.332;22.804;2023-08-17T18:41:19;15.15;;;11.10;;
77409;SDS011;66481;51.332;22.804;2023-08-17T18:45:21;20.30;;;13.57;;
77409;SDS011;66481;51.332;22.804;2023-08-17T18:49:23;18.40;;;13.38;;
77409;SDS011;66481;51.332;22.804;2023-08-17T18:53:25;15.80;;;11.27;;
77409;SDS011;66481;51.332;22.804;2023-08-17T18:57:26;14.68;;;12.20;;
77409;SDS011;66481;51.332;22.804;2023-08-17T19:01:28;12.93;;;10.27;;
77409;SDS011;66481;51.332;22.804;2023-08-17T19:05:29;13.45;;;11.80;;
77409;SDS011;66481;51.332;22.804;2023-08-17T19:09:30;15.10;;;13.32;;
77409;SDS011;66481;51.332;22.804;2023-08-17T19:13:31;12.88;;;11.55;;
77409;SDS011;66481;51.332;22.804;2023-08-17T19:17:32;13.38;;;11.85;;
77409;SDS011;66481;51.332;22.804;2023-08-17T19:21:33;16.77;;;12.38;;
77409;SDS011;66481;51.332;22.804;2023-08-17T19:25:34;16.10;;;12.02;;
77409;SDS011;66481;51.332;22.804;2023-08-17T19:29:36;15.95;;;11.93;;
77409;SDS011;66481;51.332;22.804;2023-08-17T19:33:37;15.93;;;11.90;;
77409;SDS011;66481;51.332;22.804;2023-08-17T19:37:38;16.08;;;12.02;;
77409;SDS011;66481;51.332;22.804;2023-08-17T19:41:40;15.70;;;11.95;;
77409;SDS011;66481;51.332;22.804;2023-08-17T19:45:42;17.90;;;11.68;;
77409;SDS011;66481;51.332;22.804;2023-08-17T19:49:44;16.58;;;12.05;;
77409;SDS011;66481;51.332;22.804;2023-08-17T19:53:47;17.60;;;11.70;;
77409;SDS011;66481;51.332;22.804;2023-08-17T19:57:49;15.10;;;12.05;;
77409;SDS011;66481;51.332;22.804;2023-08-17T20:02:09;14.80;;;11.07;;
77409;SDS011;66481;51.332;22.804;2023-08-17T20:06:19;15.63;;;11.98;;
77409;SDS011;66481;51.332;22.804;2023-08-17T20:10:34;14.43;;;12.90;;
77409;SDS011;66481;51.332;22.804;2023-08-17T20:14:45;13.40;;;12.05;;
77409;SDS011;66481;51.332;22.804;2023-08-17T20:18:50;15.65;;;12.82;;
77409;SDS011;66481;51.332;22.804;2023-08-17T20:22:52;15.75;;;11.43;;
77409;SDS011;66481;51.332;22.804;2023-08-17T20:26:55;13.80;;;12.38;;
77409;SDS011;66481;51.332;22.804;2023-08-17T20:31:20;14.77;;;11.27;;
77409;SDS011;66481;51.332;22.804;2023-08-17T20:35:25;15.95;;;12.48;;
77409;SDS011;66481;51.332;22.804;2023-08-17T20:39:42;14.45;;;12.80;;
77409;SDS011;66481;51.332;22.804;2023-08-17T20:43:50;17.77;;;12.50;;
77409;SDS011;66481;51.332;22.804;2023-08-17T20:47:53;14.75;;;13.35;;
77409;SDS011;66481;51.332;22.804;2023-08-17T20:51:56;17.80;;;12.73;;
77409;SDS011;66481;51.332;22.804;2023-08-17T20:55:58;19.60;;;13.40;;
77409;SDS011;66481;51.332;22.804;2023-08-17T20:59:59;17.55;;;12.40;;
77409;SDS011;66481;51.332;22.804;2023-08-17T21:04:00;15.82;;;13.15;;
77409;SDS011;66481;51.332;22.804;2023-08-17T21:08:01;22.70;;;13.80;;
77409;SDS011;66481;51.332;22.804;2023-08-17T21:12:03;13.98;;;12.48;;
77409;SDS011;66481;51.332;22.804;2023-08-17T21:16:05;20.23;;;13.82;;
77409;SDS011;66481;51.332;22.804;2023-08-17T21:20:08;17.70;;;14.60;;
77409;SDS011;66481;51.332;22.804;2023-08-17T21:24:09;20.40;;;14.82;;
77409;SDS011;66481;51.332;22.804;2023-08-17T21:28:11;22.38;;;15.30;;
77409;SDS011;66481;51.332;22.804;2023-08-17T21:32:13;16.73;;;15.02;;
77409;SDS011;66481;51.332;22.804;2023-08-17T21:36:14;17.20;;;14.98;;
77409;SDS011;66481;51.332;22.804;2023-08-17T21:40:15;17.35;;;15.07;;
77409;SDS011;66481;51.332;22.804;2023-08-17T21:44:16;18.25;;;15.13;;
77409;SDS011;66481;51.332;22.804;2023-08-17T21:48:18;21.15;;;15.45;;
77409;SDS011;66481;51.332;22.804;2023-08-17T21:52:20;19.38;;;16.13;;
77409;SDS011;66481;51.332;22.804;2023-08-17T21:56:21;18.17;;;15.35;;
77409;SDS011;66481;51.332;22.804;2023-08-17T22:00:22;19.10;;;16.63;;
77409;SDS011;66481;51.332;22.804;2023-08-17T22:04:23;20.35;;;17.00;;
77409;SDS011;66481;51.332;22.804;2023-08-17T22:08:25;19.63;;;17.60;;
77409;SDS011;66481;51.332;22.804;2023-08-17T22:12:26;22.33;;;16.23;;
77409;SDS011;66481;51.332;22.804;2023-08-17T22:16:28;23.42;;;17.48;;
77409;SDS011;66481;51.332;22.804;2023-08-17T22:20:30;18.92;;;16.63;;
77409;SDS011;66481;51.332;22.804;2023-08-17T22:24:31;21.45;;;17.88;;
77409;SDS011;66481;51.332;22.804;2023-08-17T22:28:32;22.08;;;18.92;;
77409;SDS011;66481;51.332;22.804;2023-08-17T22:32:32;19.80;;;16.70;;
77409;SDS011;66481;51.332;22.804;2023-08-17T22:36:33;16.88;;;14.98;;
77409;SDS011;66481;51.332;22.804;2023-08-17T22:40:34;18.70;;;15.88;;
77409;SDS011;66481;51.332;22.804;2023-08-17T22:44:35;18.10;;;15.07;;
77409;SDS011;66481;51.332;22.804;2023-08-17T22:48:36;17.30;;;15.27;;
77409;SDS011;66481;51.332;22.804;2023-08-17T22:52:37;17.83;;;15.98;;
77409;SDS011;66481;51.332;22.804;2023-08-17T22:56:38;17.83;;;15.32;;
77409;SDS011;66481;51.332;22.804;2023-08-17T23:00:39;18.42;;;14.88;;
77409;SDS011;66481;51.332;22.804;2023-08-17T23:04:41;17.40;;;15.50;;
77409;SDS011;66481;51.332;22.804;2023-08-17T23:08:42;18.65;;;16.58;;
77409;SDS011;66481;51.332;22.804;2023-08-17T23:12:43;17.65;;;15.10;;
77409;SDS011;66481;51.332;22.804;2023-08-17T23:16:44;18.25;;;15.80;;
77409;SDS011;66481;51.332;22.804;2023-08-17T23:20:45;17.38;;;15.55;;
77409;SDS011;66481;51.332;22.804;2023-08-17T23:24:47;18.63;;;16.73;;
77409;SDS011;66481;51.332;22.804;2023-08-17T23:28:48;18.15;;;16.45;;
77409;SDS011;66481;51.332;22.804;2023-08-17T23:32:50;20.48;;;16.80;;
77409;SDS011;66481;51.332;22.804;2023-08-17T23:36:54;17.95;;;15.88;;
77409;SDS011;66481;51.332;22.804;2023-08-17T23:40:55;16.92;;;14.50;;
77409;SDS011;66481;51.332;22.804;2023-08-17T23:44:56;18.33;;;16.27;;
77409;SDS011;66481;51.332;22.804;2023-08-17T23:48:58;17.77;;;15.93;;
77409;SDS011;66481;51.332;22.804;2023-08-17T23:52:59;20.02;;;16.38;;